This is the latest recevied weather packets stored in our database for station/object AE6DC-5. If no packets are shown the sender has not sent any weather packets the latest 10 day(s).
| Time | Temp. | Humidity | Pressure | Rain* | Wind** | Luminosity | Snow |
|---|---|---|---|---|---|---|---|
| 1777084959 | 13.33° C | 84% | 1012.5 hPa | 0 mm | - | 11 W/m² | - |
| 1777082059 | 13.33° C | 83% | 1012.9 hPa | 0 mm | - | 87 W/m² | - |
| 1777077741 | 13.33° C | 81% | 1013 hPa | 0 mm | - | 341 W/m² | - |
| 1777076661 | 13.33° C | 82% | 1013.2 hPa | 0 mm | - | 257 W/m² | - |
| 1777074859 | 13.33° C | 82% | 1013.6 hPa | 0 mm | - | 298 W/m² | - |
| 1777074498 | 13.33° C | 83% | 1013.2 hPa | 0 mm | - | 518 W/m² | - |
| 1777071637 | 13.33° C | 83% | 1013.5 hPa | 0 mm | - | 533 W/m² | - |
| 1777070897 | 13.33° C | 81% | 1013.2 hPa | 0 mm | - | 756 W/m² | - |
| 1777070180 | 13.33° C | 81% | 1013.4 hPa | 0 mm | - | 772 W/m² | - |
| 1777069118 | 13.33° C | 80% | 1013.5 hPa | 0 mm | - | 823 W/m² | - |
| 1777068018 | 13.33° C | 80% | 1013.4 hPa | 0 mm | - | 904 W/m² | - |
| 1777066938 | 12.78° C | 81% | 1014.1 hPa | 0 mm | - | 529 W/m² | - |
| 1777062999 | 12.78° C | 82% | 1014.3 hPa | 0 mm | - | 514 W/m² | - |
| 1777061540 | 12.78° C | 83% | 1013.7 hPa | 0 mm | - | 911 W/m² | - |
| 1777060481 | 12.78° C | 84% | 1014 hPa | 0 mm | - | 760 W/m² | - |
| 1777058297 | 12.78° C | 84% | 1014 hPa | 0 mm | - | 938 W/m² | - |
| 1777056861 | 12.78° C | 83% | 1014.4 hPa | 0 mm | - | 643 W/m² | - |
| 1777056498 | 12.78° C | 83% | 1014.5 hPa | 0 mm | - | 602 W/m² | - |
| 1777055778 | 12.78° C | 83% | 1014.7 hPa | 0 mm | - | 543 W/m² | - |
| 1777053979 | 13.33° C | 81% | 1014.5 hPa | 0 mm | - | 555 W/m² | - |
| 1777053619 | 12.78° C | 81% | 1014.4 hPa | 0 mm | - | 596 W/m² | - |
| 1777052179 | 12.78° C | 80% | 1014.4 hPa | 0 mm | - | 461 W/m² | - |
| 1777049657 | 12.78° C | 80% | 1014.3 hPa | 0 mm | - | 252 W/m² | - |
| 1777045338 | 12.78° C | 81% | 1014.5 hPa | 0 mm | - | 112 W/m² | - |
| 1777044978 | 12.78° C | 81% | 1014.4 hPa | 0 mm | - | 146 W/m² | - |
* Rain latest hour (hover to see other rain measurements)
** Current wind speed in m/s (hover to see current wind gust speed)